sensor_id;sensor_type;location;lat;lon;timestamp;pressure;altitude;pressure_sealevel;temperature;humidity
8697;BME280;4385;48.848;8.924;2023-04-15T00:00:32;96423.34;;;18.94;100.00
8697;BME280;4385;48.848;8.924;2023-04-15T00:02:58;96419.16;;;18.93;100.00
8697;BME280;4385;48.848;8.924;2023-04-15T00:05:24;96420.94;;;18.91;100.00
8697;BME280;4385;48.848;8.924;2023-04-15T00:07:50;96422.66;;;18.91;100.00
8697;BME280;4385;48.848;8.924;2023-04-15T00:10:15;96414.25;;;18.89;100.00
8697;BME280;4385;48.848;8.924;2023-04-15T00:12:40;96416.91;;;18.86;100.00
8697;BME280;4385;48.848;8.924;2023-04-15T00:15:06;96423.84;;;18.82;100.00
8697;BME280;4385;48.848;8.924;2023-04-15T00:17:33;96417.22;;;18.78;100.00
8697;BME280;4385;48.848;8.924;2023-04-15T00:19:58;96417.34;;;18.75;100.00
8697;BME280;4385;48.848;8.924;2023-04-15T00:22:24;96420.03;;;18.72;100.00
8697;BME280;4385;48.848;8.924;2023-04-15T00:24:50;96414.16;;;18.69;100.00
8697;BME280;4385;48.848;8.924;2023-04-15T00:27:15;96417.59;;;18.68;100.00
8697;BME280;4385;48.848;8.924;2023-04-15T00:29:40;96422.66;;;18.70;100.00
8697;BME280;4385;48.848;8.924;2023-04-15T00:32:06;96414.09;;;18.71;100.00
8697;BME280;4385;48.848;8.924;2023-04-15T00:34:31;96419.97;;;18.73;100.00
8697;BME280;4385;48.848;8.924;2023-04-15T00:36:56;96420.75;;;18.75;100.00
8697;BME280;4385;48.848;8.924;2023-04-15T00:39:22;96419.00;;;18.76;100.00
8697;BME280;4385;48.848;8.924;2023-04-15T00:41:48;96415.59;;;18.77;100.00
8697;BME280;4385;48.848;8.924;2023-04-15T00:44:13;96409.63;;;18.76;100.00
8697;BME280;4385;48.848;8.924;2023-04-15T00:46:39;96410.47;;;18.77;100.00
8697;BME280;4385;48.848;8.924;2023-04-15T00:49:06;96416.44;;;18.76;100.00
8697;BME280;4385;48.848;8.924;2023-04-15T00:51:32;96411.41;;;18.74;100.00
8697;BME280;4385;48.848;8.924;2023-04-15T00:54:03;96410.59;;;18.74;100.00
8697;BME280;4385;48.848;8.924;2023-04-15T00:56:29;96416.63;;;18.71;100.00
8697;BME280;4385;48.848;8.924;2023-04-15T00:58:55;96408.28;;;18.67;100.00
8697;BME280;4385;48.848;8.924;2023-04-15T01:01:21;96418.56;;;18.66;100.00
8697;BME280;4385;48.848;8.924;2023-04-15T01:03:50;96413.59;;;18.63;100.00
8697;BME280;4385;48.848;8.924;2023-04-15T01:06:16;96421.38;;;18.60;100.00
8697;BME280;4385;48.848;8.924;2023-04-15T01:08:42;96415.47;;;18.57;100.00
8697;BME280;4385;48.848;8.924;2023-04-15T01:11:09;96420.59;;;18.57;100.00
8697;BME280;4385;48.848;8.924;2023-04-15T01:13:36;96417.13;;;18.59;100.00
8697;BME280;4385;48.848;8.924;2023-04-15T01:16:02;96406.88;;;18.60;100.00
8697;BME280;4385;48.848;8.924;2023-04-15T01:18:28;96412.75;;;18.62;100.00
8697;BME280;4385;48.848;8.924;2023-04-15T01:20:53;96413.47;;;18.66;100.00
8697;BME280;4385;48.848;8.924;2023-04-15T01:23:20;96411.66;;;18.68;100.00
8697;BME280;4385;48.848;8.924;2023-04-15T01:25:48;96406.44;;;18.71;100.00
8697;BME280;4385;48.848;8.924;2023-04-15T01:28:14;96406.31;;;18.74;100.00
8697;BME280;4385;48.848;8.924;2023-04-15T01:30:39;96413.09;;;18.75;100.00
8697;BME280;4385;48.848;8.924;2023-04-15T01:33:04;96404.53;;;18.76;100.00
8697;BME280;4385;48.848;8.924;2023-04-15T01:35:30;96414.75;;;18.76;100.00
8697;BME280;4385;48.848;8.924;2023-04-15T01:38:02;96408.72;;;18.77;100.00
8697;BME280;4385;48.848;8.924;2023-04-15T01:40:29;96407.09;;;18.76;100.00
8697;BME280;4385;48.848;8.924;2023-04-15T01:42:54;96405.44;;;18.75;100.00
8697;BME280;4385;48.848;8.924;2023-04-15T01:45:20;96413.09;;;18.75;100.00
8697;BME280;4385;48.848;8.924;2023-04-15T01:47:45;96409.75;;;18.73;100.00
8697;BME280;4385;48.848;8.924;2023-04-15T01:50:10;96413.22;;;18.72;100.00
8697;BME280;4385;48.848;8.924;2023-04-15T01:52:35;96406.44;;;18.71;100.00
8697;BME280;4385;48.848;8.924;2023-04-15T01:55:01;96405.69;;;18.69;100.00
8697;BME280;4385;48.848;8.924;2023-04-15T01:57:26;96399.81;;;18.67;100.00
8697;BME280;4385;48.848;8.924;2023-04-15T01:59:52;96399.09;;;18.63;100.00
8697;BME280;4385;48.848;8.924;2023-04-15T02:02:17;96397.44;;;18.62;100.00
8697;BME280;4385;48.848;8.924;2023-04-15T02:04:42;96398.41;;;18.60;100.00
8697;BME280;4385;48.848;8.924;2023-04-15T02:07:08;96396.72;;;18.59;100.00
8697;BME280;4385;48.848;8.924;2023-04-15T02:09:34;96397.63;;;18.57;100.00
8697;BME280;4385;48.848;8.924;2023-04-15T02:11:59;96398.53;;;18.56;100.00
8697;BME280;4385;48.848;8.924;2023-04-15T02:14:24;96403.75;;;18.53;100.00
8697;BME280;4385;48.848;8.924;2023-04-15T02:16:50;96403.75;;;18.53;100.00
8697;BME280;4385;48.848;8.924;2023-04-15T02:19:15;96395.31;;;18.51;100.00
8697;BME280;4385;48.848;8.924;2023-04-15T02:21:40;96399.50;;;18.52;100.00
8697;BME280;4385;48.848;8.924;2023-04-15T02:24:05;96393.53;;;18.53;100.00
8697;BME280;4385;48.848;8.924;2023-04-15T02:26:31;96396.09;;;18.53;100.00
8697;BME280;4385;48.848;8.924;2023-04-15T02:28:57;96395.19;;;18.54;100.00
8697;BME280;4385;48.848;8.924;2023-04-15T02:31:23;96394.22;;;18.57;100.00
8697;BME280;4385;48.848;8.924;2023-04-15T02:33:48;96395.91;;;18.58;100.00
8697;BME280;4385;48.848;8.924;2023-04-15T02:36:14;96394.09;;;18.60;100.00
8697;BME280;4385;48.848;8.924;2023-04-15T02:38:39;96396.59;;;18.62;100.00
8697;BME280;4385;48.848;8.924;2023-04-15T02:41:08;96393.97;;;18.63;100.00
8697;BME280;4385;48.848;8.924;2023-04-15T02:43:33;96393.97;;;18.63;100.00
8697;BME280;4385;48.848;8.924;2023-04-15T02:45:58;96389.72;;;18.64;100.00
8697;BME280;4385;48.848;8.924;2023-04-15T02:48:24;96388.06;;;18.63;100.00
8697;BME280;4385;48.848;8.924;2023-04-15T02:50:49;96389.84;;;18.61;100.00
8697;BME280;4385;48.848;8.924;2023-04-15T02:53:14;96385.66;;;18.60;100.00
8697;BME280;4385;48.848;8.924;2023-04-15T02:55:40;96386.50;;;18.59;100.00
8697;BME280;4385;48.848;8.924;2023-04-15T02:58:06;96388.31;;;18.56;100.00
8697;BME280;4385;48.848;8.924;2023-04-15T03:00:32;96378.25;;;18.53;100.00
8697;BME280;4385;48.848;8.924;2023-04-15T03:03:02;96385.16;;;18.50;100.00
8697;BME280;4385;48.848;8.924;2023-04-15T03:05:28;96384.44;;;18.46;100.00
8697;BME280;4385;48.848;8.924;2023-04-15T03:07:53;96388.81;;;18.44;100.00
8697;BME280;4385;48.848;8.924;2023-04-15T03:10:19;96388.94;;;18.41;100.00
8697;BME280;4385;48.848;8.924;2023-04-15T03:12:45;96388.16;;;18.39;100.00
8697;BME280;4385;48.848;8.924;2023-04-15T03:15:10;96390.81;;;18.36;100.00
8697;BME280;4385;48.848;8.924;2023-04-15T03:17:36;96388.34;;;18.34;100.00
8697;BME280;4385;48.848;8.924;2023-04-15T03:20:02;96388.34;;;18.34;100.00
8697;BME280;4385;48.848;8.924;2023-04-15T03:22:33;96395.97;;;18.34;100.00
8697;BME280;4385;48.848;8.924;2023-04-15T03:24:58;96396.69;;;18.38;100.00
8697;BME280;4385;48.848;8.924;2023-04-15T03:27:24;96391.53;;;18.39;100.00
8697;BME280;4385;48.848;8.924;2023-04-15T03:29:50;96391.47;;;18.41;100.00
8697;BME280;4385;48.848;8.924;2023-04-15T03:32:16;96383.72;;;18.44;100.00
8697;BME280;4385;48.848;8.924;2023-04-15T03:34:41;96387.84;;;18.47;100.00
8697;BME280;4385;48.848;8.924;2023-04-15T03:37:07;96386.88;;;18.49;100.00
8697;BME280;4385;48.848;8.924;2023-04-15T03:39:33;96380.00;;;18.51;100.00
8697;BME280;4385;48.848;8.924;2023-04-15T03:41:58;96378.25;;;18.53;100.00
8697;BME280;4385;48.848;8.924;2023-04-15T03:44:25;96378.25;;;18.53;100.00
8697;BME280;4385;48.848;8.924;2023-04-15T03:46:50;96379.03;;;18.54;100.00
8697;BME280;4385;48.848;8.924;2023-04-15T03:49:15;96385.88;;;18.53;100.00
8697;BME280;4385;48.848;8.924;2023-04-15T03:51:41;96377.47;;;18.51;100.00
8697;BME280;4385;48.848;8.924;2023-04-15T03:54:06;96386.81;;;18.51;100.00
8697;BME280;4385;48.848;8.924;2023-04-15T03:56:31;96380.97;;;18.49;100.00
8697;BME280;4385;48.848;8.924;2023-04-15T03:58:57;96381.09;;;18.46;100.00
8697;BME280;4385;48.848;8.924;2023-04-15T04:01:22;96381.16;;;18.44;100.00
8697;BME280;4385;48.848;8.924;2023-04-15T04:03:47;96382.03;;;18.43;100.00
8697;BME280;4385;48.848;8.924;2023-04-15T04:06:13;96377.81;;;18.42;100.00
8697;BME280;4385;48.848;8.924;2023-04-15T04:08:38;96382.16;;;18.40;100.00
8697;BME280;4385;48.848;8.924;2023-04-15T04:11:04;96381.34;;;18.39;100.00
8697;BME280;4385;48.848;8.924;2023-04-15T04:13:29;96384.69;;;18.40;100.00
8697;BME280;4385;48.848;8.924;2023-04-15T04:15:55;96383.00;;;18.40;100.00
8697;BME280;4385;48.848;8.924;2023-04-15T04:18:20;96392.22;;;18.43;100.00
8697;BME280;4385;48.848;8.924;2023-04-15T04:20:45;96391.31;;;18.46;100.00
8697;BME280;4385;48.848;8.924;2023-04-15T04:23:11;96388.63;;;18.49;100.00
8697;BME280;4385;48.848;8.924;2023-04-15T04:25:36;96389.38;;;18.51;100.00
8697;BME280;4385;48.848;8.924;2023-04-15T04:28:02;96391.06;;;18.52;100.00
8697;BME280;4385;48.848;8.924;2023-04-15T04:30:27;96388.38;;;18.55;100.00
8697;BME280;4385;48.848;8.924;2023-04-15T04:32:52;96390.88;;;18.56;100.00
8697;BME280;4385;48.848;8.924;2023-04-15T04:35:18;96395.06;;;18.57;100.00
8697;BME280;4385;48.848;8.924;2023-04-15T04:37:43;96389.06;;;18.59;100.00
8697;BME280;4385;48.848;8.924;2023-04-15T04:40:08;96390.81;;;18.58;100.00
8697;BME280;4385;48.848;8.924;2023-04-15T04:42:34;96397.56;;;18.59;100.00
8697;BME280;4385;48.848;8.924;2023-04-15T04:45:00;96395.84;;;18.60;100.00
8697;BME280;4385;48.848;8.924;2023-04-15T04:47:25;96396.72;;;18.59;100.00
8697;BME280;4385;48.848;8.924;2023-04-15T04:49:50;96396.72;;;18.59;100.00
8697;BME280;4385;48.848;8.924;2023-04-15T04:52:15;96404.50;;;18.55;100.00
8697;BME280;4385;48.848;8.924;2023-04-15T04:54:41;96402.91;;;18.53;100.00
8697;BME280;4385;48.848;8.924;2023-04-15T04:57:06;96403.81;;;18.52;100.00
8697;BME280;4385;48.848;8.924;2023-04-15T04:59:32;96407.28;;;18.49;100.00
8697;BME280;4385;48.848;8.924;2023-04-15T05:01:57;96410.75;;;18.48;100.00
8697;BME280;4385;48.848;8.924;2023-04-15T05:04:22;96410.09;;;18.43;100.00
8697;BME280;4385;48.848;8.924;2023-04-15T05:06:48;96407.66;;;18.40;100.00
8697;BME280;4385;48.848;8.924;2023-04-15T05:09:13;96411.22;;;18.36;100.00
8697;BME280;4385;48.848;8.924;2023-04-15T05:11:38;96408.84;;;18.31;100.00
8697;BME280;4385;48.848;8.924;2023-04-15T05:14:03;96408.97;;;18.28;100.00
8697;BME280;4385;48.848;8.924;2023-04-15T05:16:29;96411.63;;;18.25;100.00
8697;BME280;4385;48.848;8.924;2023-04-15T05:18:54;96411.81;;;18.20;100.00
8697;BME280;4385;48.848;8.924;2023-04-15T05:21:20;96410.16;;;18.19;100.00
8697;BME280;4385;48.848;8.924;2023-04-15T05:23:45;96411.81;;;18.20;100.00
8697;BME280;4385;48.848;8.924;2023-04-15T05:26:10;96416.84;;;18.22;100.00
8697;BME280;4385;48.848;8.924;2023-04-15T05:28:36;96415.16;;;18.22;100.00
8697;BME280;4385;48.848;8.924;2023-04-15T05:31:01;96413.34;;;18.24;100.00
8697;BME280;4385;48.848;8.924;2023-04-15T05:33:27;96412.41;;;18.27;100.00
8697;BME280;4385;48.848;8.924;2023-04-15T05:35:52;96418.28;;;18.29;100.00
8697;BME280;4385;48.848;8.924;2023-04-15T05:38:17;96415.66;;;18.30;100.00
8697;BME280;4385;48.848;8.924;2023-04-15T05:40:42;96413.09;;;18.30;100.00
8697;BME280;4385;48.848;8.924;2023-04-15T05:43:08;96414.00;;;18.29;100.00
8697;BME280;4385;48.848;8.924;2023-04-15T05:45:33;96414.00;;;18.29;100.00
8697;BME280;4385;48.848;8.924;2023-04-15T05:47:58;96416.56;;;18.29;100.00
8697;BME280;4385;48.848;8.924;2023-04-15T05:50:24;96419.09;;;18.29;100.00
8697;BME280;4385;48.848;8.924;2023-04-15T05:52:49;96418.34;;;18.27;100.00
8697;BME280;4385;48.848;8.924;2023-04-15T05:55:14;96416.69;;;18.26;100.00
8697;BME280;4385;48.848;8.924;2023-04-15T05:57:40;96422.69;;;18.25;100.00
8697;BME280;4385;48.848;8.924;2023-04-15T06:00:06;96425.34;;;18.22;100.00
8697;BME280;4385;48.848;8.924;2023-04-15T06:02:31;96430.44;;;18.22;100.00
8697;BME280;4385;48.848;8.924;2023-04-15T06:04:57;96432.22;;;18.20;100.00
8697;BME280;4385;48.848;8.924;2023-04-15T06:07:25;96423.66;;;18.21;100.00
8697;BME280;4385;48.848;8.924;2023-04-15T06:09:50;96431.31;;;18.21;100.00
8697;BME280;4385;48.848;8.924;2023-04-15T06:12:15;96424.50;;;18.22;100.00
8697;BME280;4385;48.848;8.924;2023-04-15T06:14:41;96424.44;;;18.23;100.00
8697;BME280;4385;48.848;8.924;2023-04-15T06:17:06;96426.03;;;18.26;100.00
8697;BME280;4385;48.848;8.924;2023-04-15T06:19:32;96425.97;;;18.27;100.00
8697;BME280;4385;48.848;8.924;2023-04-15T06:21:58;96428.47;;;18.29;100.00
8697;BME280;4385;48.848;8.924;2023-04-15T06:24:23;96427.53;;;18.31;100.00
8697;BME280;4385;48.848;8.924;2023-04-15T06:26:49;96433.41;;;18.34;100.00
8697;BME280;4385;48.848;8.924;2023-04-15T06:29:14;96434.19;;;18.36;100.00
8697;BME280;4385;48.848;8.924;2023-04-15T06:31:40;96433.22;;;18.38;100.00
8697;BME280;4385;48.848;8.924;2023-04-15T06:34:05;96434.91;;;18.39;100.00
8697;BME280;4385;48.848;8.924;2023-04-15T06:36:31;96434.78;;;18.42;100.00
8697;BME280;4385;48.848;8.924;2023-04-15T06:38:56;96434.72;;;18.44;100.00
8697;BME280;4385;48.848;8.924;2023-04-15T06:41:22;96441.47;;;18.45;100.00
8697;BME280;4385;48.848;8.924;2023-04-15T06:43:47;96438.03;;;18.46;100.00
8697;BME280;4385;48.848;8.924;2023-04-15T06:46:13;96438.03;;;18.46;100.00
8697;BME280;4385;48.848;8.924;2023-04-15T06:48:38;96444.75;;;18.49;100.00
8697;BME280;4385;48.848;8.924;2023-04-15T06:51:04;96448.09;;;18.49;100.00
8697;BME280;4385;48.848;8.924;2023-04-15T06:53:29;96447.22;;;18.50;100.00
8697;BME280;4385;48.848;8.924;2023-04-15T06:55:54;96448.09;;;18.49;100.00
8697;BME280;4385;48.848;8.924;2023-04-15T06:58:20;96441.34;;;18.48;100.00
8697;BME280;4385;48.848;8.924;2023-04-15T07:00:46;96451.63;;;18.47;100.00
8697;BME280;4385;48.848;8.924;2023-04-15T07:03:11;96446.56;;;18.45;100.00
8697;BME280;4385;48.848;8.924;2023-04-15T07:05:38;96444.03;;;18.45;100.00
8697;BME280;4385;48.848;8.924;2023-04-15T07:08:04;96439.81;;;18.44;100.00
8697;BME280;4385;48.848;8.924;2023-04-15T07:10:29;96441.53;;;18.43;100.00
8697;BME280;4385;48.848;8.924;2023-04-15T07:12:55;96439.81;;;18.44;100.00
8697;BME280;4385;48.848;8.924;2023-04-15T07:15:21;96441.47;;;18.45;100.00
8697;BME280;4385;48.848;8.924;2023-04-15T07:17:47;96438.03;;;18.46;100.00
8697;BME280;4385;48.848;8.924;2023-04-15T07:20:12;96437.16;;;18.47;100.00
8697;BME280;4385;48.848;8.924;2023-04-15T07:22:38;96436.25;;;18.48;100.00
8697;BME280;4385;48.848;8.924;2023-04-15T07:25:04;96434.47;;;18.50;100.00
8697;BME280;4385;48.848;8.924;2023-04-15T07:27:30;96439.59;;;18.50;100.00
8697;BME280;4385;48.848;8.924;2023-04-15T07:29:55;96437.03;;;18.50;100.00
8697;BME280;4385;48.848;8.924;2023-04-15T07:32:21;96441.09;;;18.54;100.00
8697;BME280;4385;48.848;8.924;2023-04-15T07:34:46;96441.00;;;18.57;100.00
8697;BME280;4385;48.848;8.924;2023-04-15T07:37:12;96442.63;;;18.59;100.00
8697;BME280;4385;48.848;8.924;2023-04-15T07:39:37;96445.19;;;18.59;100.00
8697;BME280;4385;48.848;8.924;2023-04-15T07:42:03;96442.69;;;18.57;100.00
8697;BME280;4385;48.848;8.924;2023-04-15T07:44:28;96437.66;;;18.55;100.00
8697;BME280;4385;48.848;8.924;2023-04-15T07:46:55;96441.88;;;18.56;100.00
8697;BME280;4385;48.848;8.924;2023-04-15T07:49:20;96445.31;;;18.55;100.00
8697;BME280;4385;48.848;8.924;2023-04-15T07:51:46;96439.41;;;18.55;100.00
8697;BME280;4385;48.848;8.924;2023-04-15T07:54:11;96439.47;;;18.53;100.00
8697;BME280;4385;48.848;8.924;2023-04-15T07:56:37;96436.91;;;18.53;100.00
8697;BME280;4385;48.848;8.924;2023-04-15T07:59:02;96436.97;;;18.52;100.00
8697;BME280;4385;48.848;8.924;2023-04-15T08:01:29;96433.56;;;18.51;100.00
8697;BME280;4385;48.848;8.924;2023-04-15T08:03:55;96431.16;;;18.48;100.00
8697;BME280;4385;48.848;8.924;2023-04-15T08:06:21;96428.66;;;18.47;100.00
8697;BME280;4385;48.848;8.924;2023-04-15T08:08:46;96427.81;;;18.46;100.00
8697;BME280;4385;48.848;8.924;2023-04-15T08:11:12;96429.50;;;18.47;100.00
8697;BME280;4385;48.848;8.924;2023-04-15T08:13:37;96428.59;;;18.48;100.00
8697;BME280;4385;48.848;8.924;2023-04-15T08:16:21;96428.53;;;18.50;100.00
8697;BME280;4385;48.848;8.924;2023-04-15T08:18:48;96438.63;;;18.53;100.00
8697;BME280;4385;48.848;8.924;2023-04-15T08:21:14;96436.00;;;18.54;100.00
8697;BME280;4385;48.848;8.924;2023-04-15T08:23:39;96441.06;;;18.56;100.00
8697;BME280;4385;48.848;8.924;2023-04-15T08:26:05;96441.88;;;18.56;100.00
8697;BME280;4385;48.848;8.924;2023-04-15T08:28:30;96442.00;;;18.53;100.00
8697;BME280;4385;48.848;8.924;2023-04-15T08:30:56;96440.44;;;18.49;100.00
8697;BME280;4385;48.848;8.924;2023-04-15T08:33:21;96441.41;;;18.47;100.00
8697;BME280;4385;48.848;8.924;2023-04-15T08:35:47;96448.16;;;18.48;100.00
8697;BME280;4385;48.848;8.924;2023-04-15T08:38:12;96444.81;;;18.47;100.00
8697;BME280;4385;48.848;8.924;2023-04-15T08:40:41;96450.72;;;18.48;100.00
8697;BME280;4385;48.848;8.924;2023-04-15T08:43:23;96447.22;;;18.50;100.00
8697;BME280;4385;48.848;8.924;2023-04-15T08:45:52;96445.44;;;18.52;100.00
8697;BME280;4385;48.848;8.924;2023-04-15T08:48:18;96447.88;;;18.55;100.00
8697;BME280;4385;48.848;8.924;2023-04-15T08:50:45;96449.53;;;18.56;100.00
8697;BME280;4385;48.848;8.924;2023-04-15T08:53:10;96447.88;;;18.55;100.00
8697;BME280;4385;48.848;8.924;2023-04-15T08:55:41;96439.34;;;18.56;100.00
8697;BME280;4385;48.848;8.924;2023-04-15T08:58:08;96443.59;;;18.56;100.00
8697;BME280;4385;48.848;8.924;2023-04-15T09:00:35;96447.06;;;18.55;100.00
8697;BME280;4385;48.848;8.924;2023-04-15T09:03:01;96441.09;;;18.54;100.00
8697;BME280;4385;48.848;8.924;2023-04-15T09:05:26;96446.22;;;18.54;100.00
8697;BME280;4385;48.848;8.924;2023-04-15T09:07:51;96451.25;;;18.56;100.00
8697;BME280;4385;48.848;8.924;2023-04-15T09:10:17;96450.41;;;18.55;100.00
8697;BME280;4385;48.848;8.924;2023-04-15T09:12:42;96458.06;;;18.55;100.00
8697;BME280;4385;48.848;8.924;2023-04-15T09:15:10;96448.72;;;18.56;100.00
8697;BME280;4385;48.848;8.924;2023-04-15T09:17:44;96461.34;;;18.59;100.00
8697;BME280;4385;48.848;8.924;2023-04-15T09:20:11;96466.38;;;18.61;100.00
8697;BME280;4385;48.848;8.924;2023-04-15T09:22:38;96469.72;;;18.63;100.00
8697;BME280;4385;48.848;8.924;2023-04-15T09:25:24;96468.69;;;18.67;100.00
8697;BME280;4385;48.848;8.924;2023-04-15T09:27:52;96478.91;;;18.67;100.00
8697;BME280;4385;48.848;8.924;2023-04-15T09:30:18;96474.56;;;18.69;100.00
8697;BME280;4385;48.848;8.924;2023-04-15T09:32:57;96472.91;;;18.68;100.00
8697;BME280;4385;48.848;8.924;2023-04-15T09:35:24;96478.91;;;18.67;100.00
8697;BME280;4385;48.848;8.924;2023-04-15T09:37:50;96472.22;;;18.64;100.00
8697;BME280;4385;48.848;8.924;2023-04-15T09:40:41;96470.47;;;18.65;100.00
8697;BME280;4385;48.848;8.924;2023-04-15T09:43:07;96478.19;;;18.63;100.00
8697;BME280;4385;48.848;8.924;2023-04-15T09:45:34;96479.06;;;18.62;100.00
8697;BME280;4385;48.848;8.924;2023-04-15T09:48:19;96481.69;;;18.61;100.00
8697;BME280;4385;48.848;8.924;2023-04-15T09:50:48;96483.47;;;18.59;100.00
8697;BME280;4385;48.848;8.924;2023-04-15T09:53:21;96479.25;;;18.57;100.00
8697;BME280;4385;48.848;8.924;2023-04-15T09:55:55;96480.22;;;18.55;100.00
8697;BME280;4385;48.848;8.924;2023-04-15T09:58:25;96483.69;;;18.52;100.00
8697;BME280;4385;48.848;8.924;2023-04-15T10:00:52;96489.69;;;18.51;100.00
8697;BME280;4385;48.848;8.924;2023-04-15T10:03:20;96485.56;;;18.49;100.00
8697;BME280;4385;48.848;8.924;2023-04-15T10:05:51;96481.31;;;18.48;100.00
8697;BME280;4385;48.848;8.924;2023-04-15T10:08:18;96480.50;;;18.47;100.00
8697;BME280;4385;48.848;8.924;2023-04-15T10:10:44;96472.88;;;18.47;100.00
8697;BME280;4385;48.848;8.924;2023-04-15T10:13:12;96484.66;;;18.50;100.00
8697;BME280;4385;48.848;8.924;2023-04-15T10:15:37;96479.50;;;18.51;100.00
8697;BME280;4385;48.848;8.924;2023-04-15T10:18:04;96484.53;;;18.53;100.00
8697;BME280;4385;48.848;8.924;2023-04-15T10:20:31;96492.84;;;18.58;100.00
8697;BME280;4385;48.848;8.924;2023-04-15T10:22:57;96490.19;;;18.61;100.00
8697;BME280;4385;48.848;8.924;2023-04-15T10:25:23;96483.34;;;18.62;100.00
8697;BME280;4385;48.848;8.924;2023-04-15T10:27:51;96494.38;;;18.62;100.00
8697;BME280;4385;48.848;8.924;2023-04-15T10:30:17;96501.16;;;18.63;100.00
8697;BME280;4385;48.848;8.924;2023-04-15T10:32:43;96496.88;;;18.64;100.00
8697;BME280;4385;48.848;8.924;2023-04-15T10:35:09;96500.22;;;18.66;100.00
8697;BME280;4385;48.848;8.924;2023-04-15T10:37:36;96506.97;;;18.67;99.69
8697;BME280;4385;48.848;8.924;2023-04-15T10:40:34;96507.81;;;18.67;98.04
8697;BME280;4385;48.848;8.924;2023-04-15T10:43:01;96507.81;;;18.67;96.83
8697;BME280;4385;48.848;8.924;2023-04-15T10:45:32;96511.28;;;18.65;95.71
8697;BME280;4385;48.848;8.924;2023-04-15T10:48:01;96530.94;;;18.63;94.98
8697;BME280;4385;48.848;8.924;2023-04-15T10:50:27;96525.84;;;18.63;93.81
8697;BME280;4385;48.848;8.924;2023-04-15T10:52:55;96530.94;;;18.63;93.05
8697;BME280;4385;48.848;8.924;2023-04-15T10:55:22;96530.16;;;18.61;92.91
8697;BME280;4385;48.848;8.924;2023-04-15T10:57:52;96533.63;;;18.60;91.44
8697;BME280;4385;48.848;8.924;2023-04-15T11:00:18;96524.41;;;18.55;90.88
8697;BME280;4385;48.848;8.924;2023-04-15T11:05:20;96532.06;;;18.55;89.43
8697;BME280;4385;48.848;8.924;2023-04-15T11:07:47;96523.59;;;18.55;88.01
8697;BME280;4385;48.848;8.924;2023-04-15T11:12:38;96523.59;;;18.55;87.78
8697;BME280;4385;48.848;8.924;2023-04-15T11:15:29;96527.84;;;18.54;87.40
8697;BME280;4385;48.848;8.924;2023-04-15T11:17:57;96527.00;;;18.54;87.33
8697;BME280;4385;48.848;8.924;2023-04-15T11:20:23;96538.06;;;18.54;87.03
8697;BME280;4385;48.848;8.924;2023-04-15T11:22:50;96528.75;;;18.53;87.65
8697;BME280;4385;48.848;8.924;2023-04-15T11:25:26;96529.63;;;18.52;86.14
8697;BME280;4385;48.848;8.924;2023-04-15T11:27:53;96536.41;;;18.53;85.96
8697;BME280;4385;48.848;8.924;2023-04-15T11:30:23;96536.41;;;18.53;86.42
8697;BME280;4385;48.848;8.924;2023-04-15T11:32:49;96545.75;;;18.53;87.05
8697;BME280;4385;48.848;8.924;2023-04-15T11:35:16;96532.94;;;18.54;86.57
8697;BME280;4385;48.848;8.924;2023-04-15T11:37:45;96531.25;;;18.55;87.63
8697;BME280;4385;48.848;8.924;2023-04-15T11:40:11;96541.38;;;18.56;87.96
8697;BME280;4385;48.848;8.924;2023-04-15T11:42:37;96537.16;;;18.55;87.82
8697;BME280;4385;48.848;8.924;2023-04-15T11:45:21;96542.25;;;18.55;88.10
8697;BME280;4385;48.848;8.924;2023-04-15T11:47:46;96547.41;;;18.54;87.40
8697;BME280;4385;48.848;8.924;2023-04-15T11:50:19;96541.50;;;18.53;87.75
8697;BME280;4385;48.848;8.924;2023-04-15T11:52:58;96538.06;;;18.54;88.39
8697;BME280;4385;48.848;8.924;2023-04-15T11:55:24;96539.59;;;18.59;94.54
8697;BME280;4385;48.848;8.924;2023-04-15T11:58:25;96547.19;;;18.60;93.94
8697;BME280;4385;48.848;8.924;2023-04-15T12:00:58;96544.56;;;18.62;91.56
8697;BME280;4385;48.848;8.924;2023-04-15T12:06:02;96562.19;;;18.68;89.40
8697;BME280;4385;48.848;8.924;2023-04-15T12:08:50;96563.81;;;18.71;89.01
8697;BME280;4385;48.848;8.924;2023-04-15T12:11:16;96561.22;;;18.72;90.07
8697;BME280;4385;48.848;8.924;2023-04-15T12:13:48;96568.81;;;18.74;89.82
8697;BME280;4385;48.848;8.924;2023-04-15T12:16:18;96574.63;;;18.77;89.22
8697;BME280;4385;48.848;8.924;2023-04-15T12:18:49;96567.75;;;18.79;88.87
8697;BME280;4385;48.848;8.924;2023-04-15T12:21:18;96583.78;;;18.83;88.93
8697;BME280;4385;48.848;8.924;2023-04-15T12:23:48;96574.25;;;18.87;88.66
8697;BME280;4385;48.848;8.924;2023-04-15T12:26:17;96582.66;;;18.90;89.16
8697;BME280;4385;48.848;8.924;2023-04-15T12:28:43;96583.38;;;18.94;88.08
8697;BME280;4385;48.848;8.924;2023-04-15T12:31:11;96591.66;;;18.99;88.35
8697;BME280;4385;48.848;8.924;2023-04-15T12:33:39;96592.44;;;19.01;88.04
8697;BME280;4385;48.848;8.924;2023-04-15T12:36:05;96595.66;;;19.06;87.89
8697;BME280;4385;48.848;8.924;2023-04-15T12:38:30;96588.78;;;19.09;88.07
8697;BME280;4385;48.848;8.924;2023-04-15T12:40:57;96611.63;;;19.12;87.42
8697;BME280;4385;48.848;8.924;2023-04-15T12:43:22;96623.47;;;19.14;85.68
8697;BME280;4385;48.848;8.924;2023-04-15T12:45:47;96623.41;;;19.16;85.67
8697;BME280;4385;48.848;8.924;2023-04-15T12:48:13;96619.84;;;19.20;84.75
8697;BME280;4385;48.848;8.924;2023-04-15T12:50:38;96626.53;;;19.23;84.10
8697;BME280;4385;48.848;8.924;2023-04-15T12:53:03;96618.81;;;19.24;83.97
8697;BME280;4385;48.848;8.924;2023-04-15T12:55:28;96633.34;;;19.24;83.90
8697;BME280;4385;48.848;8.924;2023-04-15T12:57:55;96641.81;;;19.24;83.47
8697;BME280;4385;48.848;8.924;2023-04-15T13:00:21;96638.50;;;19.22;83.25
8697;BME280;4385;48.848;8.924;2023-04-15T13:02:46;96644.47;;;19.21;83.43
8697;BME280;4385;48.848;8.924;2023-04-15T13:05:11;96661.59;;;19.19;83.29
8697;BME280;4385;48.848;8.924;2023-04-15T13:07:38;96654.94;;;19.15;83.01
8697;BME280;4385;48.848;8.924;2023-04-15T13:10:04;96661.78;;;19.14;82.20
8697;BME280;4385;48.848;8.924;2023-04-15T13:12:30;96659.34;;;19.11;82.25
8697;BME280;4385;48.848;8.924;2023-04-15T13:14:57;96656.84;;;19.10;81.25
8697;BME280;4385;48.848;8.924;2023-04-15T13:17:22;96660.28;;;19.09;80.62